Terminal Aerodrome Forecast
Issued by NWS

Home | Current Version | Previous Version | Text Only | Print | Product List | Glossary On
Versions: 1 2 3 4 5 6 7 8 9 10 11 12 13 14
000
FTUS43 KDLH 281800 AAA
TAFBRD
TAF AMD
KBRD 281807Z 2818/2918 01011G18KT P6SM SCT045 BKN060
     FM290200 VRB04KT P6SM SKC
     FM291500 32006KT P6SM SCT045=

USA.gov is the U.S. government's official web portal to all federal, state and local government web resources and services.